sensor_id;sensor_type;location;lat;lon;timestamp;P1;durP1;ratioP1;P2;durP2;ratioP2
64473;SDS011;50857;53.338;8.486;2022-08-07T00:01:30;8.40;;;4.55;;
64473;SDS011;50857;53.338;8.486;2022-08-07T00:03:57;7.50;;;5.30;;
64473;SDS011;50857;53.338;8.486;2022-08-07T00:06:23;7.68;;;5.00;;
64473;SDS011;50857;53.338;8.486;2022-08-07T00:08:50;7.45;;;4.72;;
64473;SDS011;50857;53.338;8.486;2022-08-07T00:11:17;7.45;;;4.70;;
64473;SDS011;50857;53.338;8.486;2022-08-07T00:13:45;7.00;;;4.72;;
64473;SDS011;50857;53.338;8.486;2022-08-07T00:16:12;7.22;;;4.72;;
64473;SDS011;50857;53.338;8.486;2022-08-07T00:18:39;9.77;;;5.55;;
64473;SDS011;50857;53.338;8.486;2022-08-07T00:21:06;7.75;;;5.05;;
64473;SDS011;50857;53.338;8.486;2022-08-07T00:23:33;7.13;;;4.53;;
64473;SDS011;50857;53.338;8.486;2022-08-07T00:26:00;7.88;;;5.05;;
64473;SDS011;50857;53.338;8.486;2022-08-07T00:28:27;7.32;;;4.53;;
64473;SDS011;50857;53.338;8.486;2022-08-07T00:30:55;7.38;;;4.60;;
64473;SDS011;50857;53.338;8.486;2022-08-07T00:33:22;7.60;;;4.90;;
64473;SDS011;50857;53.338;8.486;2022-08-07T00:35:52;7.38;;;4.90;;
64473;SDS011;50857;53.338;8.486;2022-08-07T00:38:18;8.13;;;5.07;;
64473;SDS011;50857;53.338;8.486;2022-08-07T00:40:45;7.20;;;4.60;;
64473;SDS011;50857;53.338;8.486;2022-08-07T00:43:11;7.57;;;4.90;;
64473;SDS011;50857;53.338;8.486;2022-08-07T00:45:38;6.78;;;4.50;;
64473;SDS011;50857;53.338;8.486;2022-08-07T00:48:07;8.10;;;5.20;;
64473;SDS011;50857;53.338;8.486;2022-08-07T00:50:33;8.88;;;5.22;;
64473;SDS011;50857;53.338;8.486;2022-08-07T00:53:00;7.00;;;4.53;;
64473;SDS011;50857;53.338;8.486;2022-08-07T00:55:27;7.47;;;4.45;;
64473;SDS011;50857;53.338;8.486;2022-08-07T00:57:53;7.25;;;4.55;;
64473;SDS011;50857;53.338;8.486;2022-08-07T01:00:20;7.10;;;4.82;;
64473;SDS011;50857;53.338;8.486;2022-08-07T01:02:47;7.55;;;5.18;;
64473;SDS011;50857;53.338;8.486;2022-08-07T01:05:15;7.50;;;5.10;;
64473;SDS011;50857;53.338;8.486;2022-08-07T01:07:43;7.07;;;4.75;;
64473;SDS011;50857;53.338;8.486;2022-08-07T01:10:09;8.00;;;4.88;;
64473;SDS011;50857;53.338;8.486;2022-08-07T01:12:36;7.40;;;4.93;;
64473;SDS011;50857;53.338;8.486;2022-08-07T01:15:03;8.57;;;5.55;;
64473;SDS011;50857;53.338;8.486;2022-08-07T01:17:30;7.80;;;4.78;;
64473;SDS011;50857;53.338;8.486;2022-08-07T01:20:00;7.10;;;4.63;;
64473;SDS011;50857;53.338;8.486;2022-08-07T01:22:28;7.50;;;4.70;;
64473;SDS011;50857;53.338;8.486;2022-08-07T01:24:55;7.20;;;4.95;;
64473;SDS011;50857;53.338;8.486;2022-08-07T01:27:21;7.40;;;4.93;;
64473;SDS011;50857;53.338;8.486;2022-08-07T01:29:48;7.45;;;4.93;;
64473;SDS011;50857;53.338;8.486;2022-08-07T01:32:15;7.63;;;4.63;;
64473;SDS011;50857;53.338;8.486;2022-08-07T01:34:41;7.70;;;4.80;;
64473;SDS011;50857;53.338;8.486;2022-08-07T01:37:09;8.02;;;4.80;;
64473;SDS011;50857;53.338;8.486;2022-08-07T01:39:39;7.07;;;4.80;;
64473;SDS011;50857;53.338;8.486;2022-08-07T01:42:05;7.20;;;4.75;;
64473;SDS011;50857;53.338;8.486;2022-08-07T01:44:32;8.40;;;5.35;;
64473;SDS011;50857;53.338;8.486;2022-08-07T01:46:58;6.97;;;4.35;;
64473;SDS011;50857;53.338;8.486;2022-08-07T01:49:25;8.30;;;4.72;;
64473;SDS011;50857;53.338;8.486;2022-08-07T01:51:51;7.57;;;4.65;;
64473;SDS011;50857;53.338;8.486;2022-08-07T01:54:18;7.90;;;4.78;;
64473;SDS011;50857;53.338;8.486;2022-08-07T01:56:48;6.80;;;4.45;;
64473;SDS011;50857;53.338;8.486;2022-08-07T01:59:17;7.18;;;4.43;;
64473;SDS011;50857;53.338;8.486;2022-08-07T02:01:47;6.82;;;4.45;;
64473;SDS011;50857;53.338;8.486;2022-08-07T02:04:17;7.07;;;4.95;;
64473;SDS011;50857;53.338;8.486;2022-08-07T02:06:46;7.03;;;4.50;;
64473;SDS011;50857;53.338;8.486;2022-08-07T02:09:13;6.85;;;4.53;;
64473;SDS011;50857;53.338;8.486;2022-08-07T02:11:41;7.15;;;4.60;;
64473;SDS011;50857;53.338;8.486;2022-08-07T02:14:10;9.18;;;4.68;;
64473;SDS011;50857;53.338;8.486;2022-08-07T02:16:37;6.60;;;4.30;;
64473;SDS011;50857;53.338;8.486;2022-08-07T02:19:05;7.03;;;4.43;;
64473;SDS011;50857;53.338;8.486;2022-08-07T02:21:32;7.22;;;4.50;;
64473;SDS011;50857;53.338;8.486;2022-08-07T02:23:59;6.63;;;4.18;;
64473;SDS011;50857;53.338;8.486;2022-08-07T02:26:26;6.43;;;3.95;;
64473;SDS011;50857;53.338;8.486;2022-08-07T02:28:53;7.03;;;4.15;;
64473;SDS011;50857;53.338;8.486;2022-08-07T02:31:22;7.72;;;4.50;;
64473;SDS011;50857;53.338;8.486;2022-08-07T02:33:49;6.97;;;4.35;;
64473;SDS011;50857;53.338;8.486;2022-08-07T02:36:16;6.72;;;4.40;;
64473;SDS011;50857;53.338;8.486;2022-08-07T02:38:42;7.05;;;4.13;;
64473;SDS011;50857;53.338;8.486;2022-08-07T02:41:09;9.18;;;4.43;;
64473;SDS011;50857;53.338;8.486;2022-08-07T02:43:37;7.35;;;4.88;;
64473;SDS011;50857;53.338;8.486;2022-08-07T02:46:06;7.57;;;4.10;;
64473;SDS011;50857;53.338;8.486;2022-08-07T02:48:35;8.23;;;4.50;;
64473;SDS011;50857;53.338;8.486;2022-08-07T02:51:02;7.18;;;4.13;;
64473;SDS011;50857;53.338;8.486;2022-08-07T02:53:31;6.78;;;4.38;;
64473;SDS011;50857;53.338;8.486;2022-08-07T02:55:58;6.75;;;4.20;;
64473;SDS011;50857;53.338;8.486;2022-08-07T02:58:27;7.40;;;4.45;;
64473;SDS011;50857;53.338;8.486;2022-08-07T03:00:55;8.75;;;4.32;;
64473;SDS011;50857;53.338;8.486;2022-08-07T03:03:22;6.82;;;4.10;;
64473;SDS011;50857;53.338;8.486;2022-08-07T03:05:51;7.03;;;4.45;;
64473;SDS011;50857;53.338;8.486;2022-08-07T03:08:18;7.47;;;4.00;;
64473;SDS011;50857;53.338;8.486;2022-08-07T03:10:45;8.98;;;6.07;;
64473;SDS011;50857;53.338;8.486;2022-08-07T03:13:12;8.25;;;5.65;;
64473;SDS011;50857;53.338;8.486;2022-08-07T03:15:39;9.40;;;5.82;;
64473;SDS011;50857;53.338;8.486;2022-08-07T03:18:06;8.50;;;5.20;;
64473;SDS011;50857;53.338;8.486;2022-08-07T03:20:32;17.77;;;8.00;;
64473;SDS011;50857;53.338;8.486;2022-08-07T03:23:00;15.60;;;8.43;;
64473;SDS011;50857;53.338;8.486;2022-08-07T03:25:27;15.80;;;7.72;;
64473;SDS011;50857;53.338;8.486;2022-08-07T03:27:54;15.68;;;7.53;;
64473;SDS011;50857;53.338;8.486;2022-08-07T03:30:21;16.35;;;8.05;;
64473;SDS011;50857;53.338;8.486;2022-08-07T03:32:48;13.65;;;7.28;;
64473;SDS011;50857;53.338;8.486;2022-08-07T03:35:16;11.98;;;7.07;;
64473;SDS011;50857;53.338;8.486;2022-08-07T03:37:45;14.25;;;7.53;;
64473;SDS011;50857;53.338;8.486;2022-08-07T03:40:14;12.07;;;6.60;;
64473;SDS011;50857;53.338;8.486;2022-08-07T03:42:41;12.70;;;6.68;;
64473;SDS011;50857;53.338;8.486;2022-08-07T03:45:08;11.23;;;6.25;;
64473;SDS011;50857;53.338;8.486;2022-08-07T03:47:36;10.82;;;6.70;;
64473;SDS011;50857;53.338;8.486;2022-08-07T03:50:02;10.07;;;6.35;;
64473;SDS011;50857;53.338;8.486;2022-08-07T03:54:55;11.30;;;6.07;;
64473;SDS011;50857;53.338;8.486;2022-08-07T03:57:23;10.27;;;6.25;;
64473;SDS011;50857;53.338;8.486;2022-08-07T03:59:50;9.70;;;5.95;;
64473;SDS011;50857;53.338;8.486;2022-08-07T04:02:17;11.00;;;6.33;;
64473;SDS011;50857;53.338;8.486;2022-08-07T04:09:36;9.00;;;5.72;;
64473;SDS011;50857;53.338;8.486;2022-08-07T04:12:04;10.20;;;6.30;;
64473;SDS011;50857;53.338;8.486;2022-08-07T04:29:10;10.90;;;6.60;;
64473;SDS011;50857;53.338;8.486;2022-08-07T05:27:43;9.50;;;5.78;;
64473;SDS011;50857;53.338;8.486;2022-08-07T05:30:11;10.35;;;6.55;;
64473;SDS011;50857;53.338;8.486;2022-08-07T05:32:38;10.63;;;6.45;;
64473;SDS011;50857;53.338;8.486;2022-08-07T05:35:06;11.48;;;6.43;;
64473;SDS011;50857;53.338;8.486;2022-08-07T05:37:34;9.88;;;6.30;;
64473;SDS011;50857;53.338;8.486;2022-08-07T05:40:00;9.65;;;5.60;;
64473;SDS011;50857;53.338;8.486;2022-08-07T05:42:27;10.60;;;6.55;;
64473;SDS011;50857;53.338;8.486;2022-08-07T05:44:55;9.55;;;6.53;;
64473;SDS011;50857;53.338;8.486;2022-08-07T05:47:22;9.57;;;6.15;;
64473;SDS011;50857;53.338;8.486;2022-08-07T05:49:48;8.55;;;5.35;;
64473;SDS011;50857;53.338;8.486;2022-08-07T05:52:16;8.50;;;5.70;;
64473;SDS011;50857;53.338;8.486;2022-08-07T05:54:42;9.23;;;6.30;;
64473;SDS011;50857;53.338;8.486;2022-08-07T05:57:08;10.25;;;5.47;;
64473;SDS011;50857;53.338;8.486;2022-08-07T05:59:36;8.15;;;5.13;;
64473;SDS011;50857;53.338;8.486;2022-08-07T06:02:05;7.80;;;4.93;;
64473;SDS011;50857;53.338;8.486;2022-08-07T06:04:32;8.10;;;5.18;;
64473;SDS011;50857;53.338;8.486;2022-08-07T06:07:00;9.02;;;5.85;;
64473;SDS011;50857;53.338;8.486;2022-08-07T06:09:29;8.63;;;5.63;;
64473;SDS011;50857;53.338;8.486;2022-08-07T06:11:56;9.40;;;5.88;;
64473;SDS011;50857;53.338;8.486;2022-08-07T06:14:23;10.13;;;5.55;;
64473;SDS011;50857;53.338;8.486;2022-08-07T06:16:50;8.68;;;4.95;;
64473;SDS011;50857;53.338;8.486;2022-08-07T06:19:18;7.18;;;4.55;;
64473;SDS011;50857;53.338;8.486;2022-08-07T06:21:45;8.18;;;4.80;;
64473;SDS011;50857;53.338;8.486;2022-08-07T06:24:11;9.63;;;5.68;;
64473;SDS011;50857;53.338;8.486;2022-08-07T06:26:38;8.27;;;5.00;;
64473;SDS011;50857;53.338;8.486;2022-08-07T06:29:04;8.45;;;5.20;;
64473;SDS011;50857;53.338;8.486;2022-08-07T06:31:31;8.38;;;4.93;;
64473;SDS011;50857;53.338;8.486;2022-08-07T06:33:57;9.07;;;5.30;;
64473;SDS011;50857;53.338;8.486;2022-08-07T06:36:25;7.57;;;4.95;;
64473;SDS011;50857;53.338;8.486;2022-08-07T06:38:52;8.38;;;4.90;;
64473;SDS011;50857;53.338;8.486;2022-08-07T06:41:19;8.30;;;4.63;;
64473;SDS011;50857;53.338;8.486;2022-08-07T06:43:47;9.07;;;4.63;;
64473;SDS011;50857;53.338;8.486;2022-08-07T06:46:14;7.25;;;4.57;;
64473;SDS011;50857;53.338;8.486;2022-08-07T06:48:40;7.55;;;4.97;;
64473;SDS011;50857;53.338;8.486;2022-08-07T06:51:08;7.13;;;4.28;;
64473;SDS011;50857;53.338;8.486;2022-08-07T06:53:37;6.60;;;4.18;;
64473;SDS011;50857;53.338;8.486;2022-08-07T06:56:05;7.05;;;4.40;;
64473;SDS011;50857;53.338;8.486;2022-08-07T06:58:33;6.03;;;3.78;;
64473;SDS011;50857;53.338;8.486;2022-08-07T07:01:00;6.40;;;4.18;;
64473;SDS011;50857;53.338;8.486;2022-08-07T07:03:27;7.63;;;4.50;;
64473;SDS011;50857;53.338;8.486;2022-08-07T07:05:54;6.90;;;4.20;;
64473;SDS011;50857;53.338;8.486;2022-08-07T07:08:23;7.05;;;4.10;;
64473;SDS011;50857;53.338;8.486;2022-08-07T07:10:51;6.50;;;4.28;;
64473;SDS011;50857;53.338;8.486;2022-08-07T07:13:20;7.18;;;4.25;;
64473;SDS011;50857;53.338;8.486;2022-08-07T07:15:49;6.68;;;4.30;;
64473;SDS011;50857;53.338;8.486;2022-08-07T07:18:20;8.10;;;4.35;;
64473;SDS011;50857;53.338;8.486;2022-08-07T07:20:48;6.63;;;4.28;;
64473;SDS011;50857;53.338;8.486;2022-08-07T07:23:16;6.65;;;4.05;;
64473;SDS011;50857;53.338;8.486;2022-08-07T07:25:43;8.68;;;4.18;;
64473;SDS011;50857;53.338;8.486;2022-08-07T07:28:14;6.55;;;4.05;;
64473;SDS011;50857;53.338;8.486;2022-08-07T07:30:43;6.53;;;3.70;;
64473;SDS011;50857;53.338;8.486;2022-08-07T07:33:11;8.63;;;4.15;;
64473;SDS011;50857;53.338;8.486;2022-08-07T07:35:39;6.60;;;3.92;;
64473;SDS011;50857;53.338;8.486;2022-08-07T07:38:07;7.53;;;4.55;;
64473;SDS011;50857;53.338;8.486;2022-08-07T07:40:33;7.03;;;4.50;;
64473;SDS011;50857;53.338;8.486;2022-08-07T07:43:02;7.40;;;4.60;;
64473;SDS011;50857;53.338;8.486;2022-08-07T07:45:31;8.45;;;4.72;;
64473;SDS011;50857;53.338;8.486;2022-08-07T07:47:58;7.63;;;4.70;;
64473;SDS011;50857;53.338;8.486;2022-08-07T07:50:26;8.80;;;4.97;;
64473;SDS011;50857;53.338;8.486;2022-08-07T07:52:53;8.07;;;4.70;;
64473;SDS011;50857;53.338;8.486;2022-08-07T07:55:20;10.45;;;5.30;;
64473;SDS011;50857;53.338;8.486;2022-08-07T07:57:47;7.32;;;4.80;;
64473;SDS011;50857;53.338;8.486;2022-08-07T08:00:15;8.27;;;5.03;;
64473;SDS011;50857;53.338;8.486;2022-08-07T08:02:43;8.25;;;5.15;;
64473;SDS011;50857;53.338;8.486;2022-08-07T08:05:10;7.70;;;5.20;;
64473;SDS011;50857;53.338;8.486;2022-08-07T08:07:37;6.75;;;4.43;;
64473;SDS011;50857;53.338;8.486;2022-08-07T08:10:04;8.13;;;4.75;;
64473;SDS011;50857;53.338;8.486;2022-08-07T08:12:31;7.78;;;4.65;;
64473;SDS011;50857;53.338;8.486;2022-08-07T08:14:59;7.60;;;4.68;;
64473;SDS011;50857;53.338;8.486;2022-08-07T08:17:25;7.88;;;4.80;;
64473;SDS011;50857;53.338;8.486;2022-08-07T08:19:55;7.15;;;4.60;;
64473;SDS011;50857;53.338;8.486;2022-08-07T08:22:22;8.35;;;4.63;;
64473;SDS011;50857;53.338;8.486;2022-08-07T08:25:06;8.63;;;4.50;;
64473;SDS011;50857;53.338;8.486;2022-08-07T08:27:51;7.53;;;4.55;;
64473;SDS011;50857;53.338;8.486;2022-08-07T08:30:19;7.32;;;4.40;;
64473;SDS011;50857;53.338;8.486;2022-08-07T08:32:48;7.28;;;4.50;;
64473;SDS011;50857;53.338;8.486;2022-08-07T08:35:19;8.73;;;4.80;;
64473;SDS011;50857;53.338;8.486;2022-08-07T08:37:47;7.65;;;4.35;;
64473;SDS011;50857;53.338;8.486;2022-08-07T08:40:15;8.70;;;4.80;;
64473;SDS011;50857;53.338;8.486;2022-08-07T08:42:45;6.55;;;4.30;;
64473;SDS011;50857;53.338;8.486;2022-08-07T08:45:17;7.10;;;4.50;;
64473;SDS011;50857;53.338;8.486;2022-08-07T08:47:49;9.25;;;4.70;;
64473;SDS011;50857;53.338;8.486;2022-08-07T08:50:21;6.82;;;4.30;;
64473;SDS011;50857;53.338;8.486;2022-08-07T08:52:50;7.28;;;4.13;;
64473;SDS011;50857;53.338;8.486;2022-08-07T08:55:18;7.25;;;4.63;;
64473;SDS011;50857;53.338;8.486;2022-08-07T08:57:48;6.93;;;4.15;;
64473;SDS011;50857;53.338;8.486;2022-08-07T09:00:16;7.25;;;4.15;;
64473;SDS011;50857;53.338;8.486;2022-08-07T09:02:57;6.57;;;4.10;;
64473;SDS011;50857;53.338;8.486;2022-08-07T09:05:31;6.60;;;4.32;;
64473;SDS011;50857;53.338;8.486;2022-08-07T09:08:01;7.40;;;4.00;;
64473;SDS011;50857;53.338;8.486;2022-08-07T09:10:31;6.15;;;3.97;;
64473;SDS011;50857;53.338;8.486;2022-08-07T09:13:07;7.30;;;4.28;;
64473;SDS011;50857;53.338;8.486;2022-08-07T09:15:38;6.07;;;4.00;;
64473;SDS011;50857;53.338;8.486;2022-08-07T09:18:19;7.55;;;4.30;;
64473;SDS011;50857;53.338;8.486;2022-08-07T09:20:58;6.53;;;3.85;;
64473;SDS011;50857;53.338;8.486;2022-08-07T09:23:30;7.07;;;4.15;;
64473;SDS011;50857;53.338;8.486;2022-08-07T09:26:01;6.90;;;4.45;;
64473;SDS011;50857;53.338;8.486;2022-08-07T09:28:31;6.95;;;4.57;;
64473;SDS011;50857;53.338;8.486;2022-08-07T09:31:01;7.35;;;4.00;;
64473;SDS011;50857;53.338;8.486;2022-08-07T09:33:34;7.82;;;4.55;;
64473;SDS011;50857;53.338;8.486;2022-08-07T09:36:08;6.90;;;4.22;;
64473;SDS011;50857;53.338;8.486;2022-08-07T09:38:38;8.52;;;4.40;;
64473;SDS011;50857;53.338;8.486;2022-08-07T09:41:09;8.45;;;4.32;;
64473;SDS011;50857;53.338;8.486;2022-08-07T09:46:25;7.75;;;4.40;;
64473;SDS011;50857;53.338;8.486;2022-08-07T09:51:27;6.38;;;3.92;;
64473;SDS011;50857;53.338;8.486;2022-08-07T09:53:56;6.88;;;4.30;;
64473;SDS011;50857;53.338;8.486;2022-08-07T09:56:32;6.45;;;4.25;;
64473;SDS011;50857;53.338;8.486;2022-08-07T09:59:05;6.95;;;4.25;;
64473;SDS011;50857;53.338;8.486;2022-08-07T10:01:40;7.25;;;4.13;;
64473;SDS011;50857;53.338;8.486;2022-08-07T10:04:15;7.05;;;4.63;;
64473;SDS011;50857;53.338;8.486;2022-08-07T10:06:51;7.28;;;4.30;;
64473;SDS011;50857;53.338;8.486;2022-08-07T10:09:37;7.18;;;3.80;;
64473;SDS011;50857;53.338;8.486;2022-08-07T10:12:07;7.20;;;3.80;;
64473;SDS011;50857;53.338;8.486;2022-08-07T10:14:47;8.38;;;4.30;;
64473;SDS011;50857;53.338;8.486;2022-08-07T10:17:27;7.43;;;4.22;;
64473;SDS011;50857;53.338;8.486;2022-08-07T10:20:07;7.60;;;4.20;;
64473;SDS011;50857;53.338;8.486;2022-08-07T10:22:43;7.00;;;4.30;;
64473;SDS011;50857;53.338;8.486;2022-08-07T10:28:04;6.80;;;4.10;;
64473;SDS011;50857;53.338;8.486;2022-08-07T10:30:40;7.15;;;4.45;;
64473;SDS011;50857;53.338;8.486;2022-08-07T10:35:41;8.50;;;4.60;;
64473;SDS011;50857;53.338;8.486;2022-08-07T10:38:23;6.82;;;4.10;;
64473;SDS011;50857;53.338;8.486;2022-08-07T10:40:55;6.93;;;4.38;;
64473;SDS011;50857;53.338;8.486;2022-08-07T10:43:26;6.72;;;3.90;;
64473;SDS011;50857;53.338;8.486;2022-08-07T10:45:56;7.40;;;4.28;;
64473;SDS011;50857;53.338;8.486;2022-08-07T10:48:25;7.15;;;4.00;;
64473;SDS011;50857;53.338;8.486;2022-08-07T10:50:57;6.40;;;4.25;;
64473;SDS011;50857;53.338;8.486;2022-08-07T10:53:27;7.68;;;3.80;;
64473;SDS011;50857;53.338;8.486;2022-08-07T10:55:59;7.18;;;4.20;;
64473;SDS011;50857;53.338;8.486;2022-08-07T10:58:41;5.90;;;3.72;;
64473;SDS011;50857;53.338;8.486;2022-08-07T11:04:03;6.95;;;4.20;;
64473;SDS011;50857;53.338;8.486;2022-08-07T11:06:35;6.80;;;4.25;;
64473;SDS011;50857;53.338;8.486;2022-08-07T11:09:09;6.80;;;3.80;;
64473;SDS011;50857;53.338;8.486;2022-08-07T11:11:38;7.40;;;3.80;;
64473;SDS011;50857;53.338;8.486;2022-08-07T11:14:09;6.30;;;3.75;;
64473;SDS011;50857;53.338;8.486;2022-08-07T11:16:40;7.85;;;3.60;;
64473;SDS011;50857;53.338;8.486;2022-08-07T11:19:09;7.10;;;3.60;;
64473;SDS011;50857;53.338;8.486;2022-08-07T11:21:37;7.50;;;3.50;;
64473;SDS011;50857;53.338;8.486;2022-08-07T11:24:07;6.53;;;3.35;;
64473;SDS011;50857;53.338;8.486;2022-08-07T11:26:38;6.10;;;3.40;;
64473;SDS011;50857;53.338;8.486;2022-08-07T11:29:06;6.63;;;3.55;;
64473;SDS011;50857;53.338;8.486;2022-08-07T11:31:36;6.43;;;3.20;;
64473;SDS011;50857;53.338;8.486;2022-08-07T11:34:08;8.13;;;3.70;;
64473;SDS011;50857;53.338;8.486;2022-08-07T11:36:39;6.05;;;3.30;;
64473;SDS011;50857;53.338;8.486;2022-08-07T11:39:12;7.25;;;3.78;;
64473;SDS011;50857;53.338;8.486;2022-08-07T11:41:43;7.75;;;3.47;;
64473;SDS011;50857;53.338;8.486;2022-08-07T11:44:13;6.88;;;3.30;;
64473;SDS011;50857;53.338;8.486;2022-08-07T11:46:45;8.50;;;3.50;;
64473;SDS011;50857;53.338;8.486;2022-08-07T11:49:19;6.20;;;3.35;;
64473;SDS011;50857;53.338;8.486;2022-08-07T11:51:53;6.32;;;3.45;;
64473;SDS011;50857;53.338;8.486;2022-08-07T11:54:30;6.82;;;3.65;;
64473;SDS011;50857;53.338;8.486;2022-08-07T11:57:04;6.35;;;3.45;;
64473;SDS011;50857;53.338;8.486;2022-08-07T11:59:36;5.97;;;3.35;;
64473;SDS011;50857;53.338;8.486;2022-08-07T12:02:10;6.87;;;3.50;;
64473;SDS011;50857;53.338;8.486;2022-08-07T12:04:41;6.60;;;3.10;;
64473;SDS011;50857;53.338;8.486;2022-08-07T12:07:12;6.93;;;3.63;;
64473;SDS011;50857;53.338;8.486;2022-08-07T12:09:41;6.93;;;3.60;;
64473;SDS011;50857;53.338;8.486;2022-08-07T12:12:11;6.68;;;3.20;;
64473;SDS011;50857;53.338;8.486;2022-08-07T12:14:42;6.30;;;3.53;;
64473;SDS011;50857;53.338;8.486;2022-08-07T12:17:10;7.07;;;3.40;;
64473;SDS011;50857;53.338;8.486;2022-08-07T12:19:42;6.40;;;3.90;;
64473;SDS011;50857;53.338;8.486;2022-08-07T12:22:11;6.50;;;3.67;;
64473;SDS011;50857;53.338;8.486;2022-08-07T12:24:40;7.03;;;3.35;;
64473;SDS011;50857;53.338;8.486;2022-08-07T12:27:31;7.30;;;3.60;;
64473;SDS011;50857;53.338;8.486;2022-08-07T12:29:59;7.18;;;3.78;;
64473;SDS011;50857;53.338;8.486;2022-08-07T12:32:28;6.55;;;3.50;;
64473;SDS011;50857;53.338;8.486;2022-08-07T12:34:56;6.57;;;3.42;;
64473;SDS011;50857;53.338;8.486;2022-08-07T12:37:23;5.95;;;3.25;;
64473;SDS011;50857;53.338;8.486;2022-08-07T12:39:50;6.83;;;3.60;;
64473;SDS011;50857;53.338;8.486;2022-08-07T12:42:19;5.80;;;3.53;;
64473;SDS011;50857;53.338;8.486;2022-08-07T12:44:47;6.47;;;3.20;;
64473;SDS011;50857;53.338;8.486;2022-08-07T12:47:17;5.88;;;3.10;;
64473;SDS011;50857;53.338;8.486;2022-08-07T12:49:49;7.35;;;3.30;;
64473;SDS011;50857;53.338;8.486;2022-08-07T12:52:18;6.72;;;3.35;;
64473;SDS011;50857;53.338;8.486;2022-08-07T12:54:50;5.60;;;3.20;;
64473;SDS011;50857;53.338;8.486;2022-08-07T12:57:18;6.15;;;3.50;;
64473;SDS011;50857;53.338;8.486;2022-08-07T12:59:47;5.90;;;3.50;;
64473;SDS011;50857;53.338;8.486;2022-08-07T13:05:00;5.18;;;3.05;;
64473;SDS011;50857;53.338;8.486;2022-08-07T13:07:38;6.40;;;3.08;;
64473;SDS011;50857;53.338;8.486;2022-08-07T13:10:12;5.78;;;3.33;;
64473;SDS011;50857;53.338;8.486;2022-08-07T13:12:43;6.13;;;3.30;;
64473;SDS011;50857;53.338;8.486;2022-08-07T13:15:15;5.78;;;3.00;;
64473;SDS011;50857;53.338;8.486;2022-08-07T13:17:48;6.10;;;3.13;;
64473;SDS011;50857;53.338;8.486;2022-08-07T13:20:18;5.22;;;2.92;;
64473;SDS011;50857;53.338;8.486;2022-08-07T13:22:47;6.07;;;3.22;;
64473;SDS011;50857;53.338;8.486;2022-08-07T13:25:16;6.07;;;3.33;;
64473;SDS011;50857;53.338;8.486;2022-08-07T13:27:47;5.80;;;3.22;;
64473;SDS011;50857;53.338;8.486;2022-08-07T13:30:16;6.57;;;3.33;;
64473;SDS011;50857;53.338;8.486;2022-08-07T13:32:43;5.60;;;3.30;;
64473;SDS011;50857;53.338;8.486;2022-08-07T13:35:15;5.97;;;2.88;;
64473;SDS011;50857;53.338;8.486;2022-08-07T13:37:47;6.25;;;3.45;;
64473;SDS011;50857;53.338;8.486;2022-08-07T13:40:18;5.85;;;3.35;;
64473;SDS011;50857;53.338;8.486;2022-08-07T13:42:45;5.47;;;3.08;;
64473;SDS011;50857;53.338;8.486;2022-08-07T13:45:13;5.95;;;3.10;;
64473;SDS011;50857;53.338;8.486;2022-08-07T13:47:41;6.43;;;2.97;;
64473;SDS011;50857;53.338;8.486;2022-08-07T13:50:09;5.43;;;2.92;;
64473;SDS011;50857;53.338;8.486;2022-08-07T13:52:37;5.60;;;2.95;;
64473;SDS011;50857;53.338;8.486;2022-08-07T13:55:05;6.43;;;3.17;;
64473;SDS011;50857;53.338;8.486;2022-08-07T13:57:33;5.53;;;3.22;;
64473;SDS011;50857;53.338;8.486;2022-08-07T14:00:00;6.00;;;3.00;;
64473;SDS011;50857;53.338;8.486;2022-08-07T14:02:29;5.88;;;3.20;;
64473;SDS011;50857;53.338;8.486;2022-08-07T14:05:01;5.63;;;2.97;;
64473;SDS011;50857;53.338;8.486;2022-08-07T14:07:29;5.65;;;2.90;;
64473;SDS011;50857;53.338;8.486;2022-08-07T14:09:57;5.55;;;3.08;;
64473;SDS011;50857;53.338;8.486;2022-08-07T14:12:25;6.35;;;3.20;;
64473;SDS011;50857;53.338;8.486;2022-08-07T14:14:56;5.60;;;3.25;;
64473;SDS011;50857;53.338;8.486;2022-08-07T14:17:25;5.85;;;3.28;;
64473;SDS011;50857;53.338;8.486;2022-08-07T14:19:54;5.55;;;2.63;;
64473;SDS011;50857;53.338;8.486;2022-08-07T14:22:24;5.13;;;2.70;;
64473;SDS011;50857;53.338;8.486;2022-08-07T14:24:53;6.88;;;2.80;;
64473;SDS011;50857;53.338;8.486;2022-08-07T14:27:25;5.93;;;2.78;;
64473;SDS011;50857;53.338;8.486;2022-08-07T14:29:54;5.85;;;3.30;;
64473;SDS011;50857;53.338;8.486;2022-08-07T14:32:21;5.20;;;2.90;;
64473;SDS011;50857;53.338;8.486;2022-08-07T14:34:49;6.05;;;3.08;;
64473;SDS011;50857;53.338;8.486;2022-08-07T14:37:16;5.40;;;2.60;;
64473;SDS011;50857;53.338;8.486;2022-08-07T14:39:45;5.05;;;2.53;;
64473;SDS011;50857;53.338;8.486;2022-08-07T14:42:12;5.82;;;2.80;;
64473;SDS011;50857;53.338;8.486;2022-08-07T14:44:42;5.32;;;2.72;;
64473;SDS011;50857;53.338;8.486;2022-08-07T14:47:12;6.28;;;2.90;;
64473;SDS011;50857;53.338;8.486;2022-08-07T14:49:39;5.13;;;2.60;;
64473;SDS011;50857;53.338;8.486;2022-08-07T14:52:07;5.78;;;2.78;;
64473;SDS011;50857;53.338;8.486;2022-08-07T14:54:33;5.20;;;2.40;;
64473;SDS011;50857;53.338;8.486;2022-08-07T14:57:02;5.07;;;2.47;;
64473;SDS011;50857;53.338;8.486;2022-08-07T14:59:30;7.00;;;2.80;;
64473;SDS011;50857;53.338;8.486;2022-08-07T15:02:07;5.38;;;2.70;;
64473;SDS011;50857;53.338;8.486;2022-08-07T15:04:37;5.68;;;2.80;;
64473;SDS011;50857;53.338;8.486;2022-08-07T15:07:04;5.10;;;2.50;;
64473;SDS011;50857;53.338;8.486;2022-08-07T15:09:30;6.35;;;2.38;;
64473;SDS011;50857;53.338;8.486;2022-08-07T15:12:00;5.57;;;2.55;;
64473;SDS011;50857;53.338;8.486;2022-08-07T15:14:31;6.43;;;2.47;;
64473;SDS011;50857;53.338;8.486;2022-08-07T15:17:00;8.35;;;2.83;;
64473;SDS011;50857;53.338;8.486;2022-08-07T15:19:28;6.13;;;2.60;;
64473;SDS011;50857;53.338;8.486;2022-08-07T15:21:56;6.50;;;2.35;;
64473;SDS011;50857;53.338;8.486;2022-08-07T15:24:24;5.90;;;2.60;;
64473;SDS011;50857;53.338;8.486;2022-08-07T15:26:56;5.25;;;2.78;;
64473;SDS011;50857;53.338;8.486;2022-08-07T15:29:23;6.22;;;2.85;;
64473;SDS011;50857;53.338;8.486;2022-08-07T15:31:59;5.75;;;2.88;;
64473;SDS011;50857;53.338;8.486;2022-08-07T15:34:26;5.60;;;2.63;;
64473;SDS011;50857;53.338;8.486;2022-08-07T15:36:53;6.13;;;2.70;;
64473;SDS011;50857;53.338;8.486;2022-08-07T15:39:20;5.00;;;2.80;;
64473;SDS011;50857;53.338;8.486;2022-08-07T15:41:56;6.45;;;2.78;;
64473;SDS011;50857;53.338;8.486;2022-08-07T15:46:53;5.63;;;2.63;;
64473;SDS011;50857;53.338;8.486;2022-08-07T15:49:23;6.43;;;2.97;;
64473;SDS011;50857;53.338;8.486;2022-08-07T15:51:51;6.13;;;2.75;;
64473;SDS011;50857;53.338;8.486;2022-08-07T15:54:18;5.72;;;2.70;;
64473;SDS011;50857;53.338;8.486;2022-08-07T15:56:45;5.22;;;2.83;;
64473;SDS011;50857;53.338;8.486;2022-08-07T15:59:13;6.05;;;2.83;;
64473;SDS011;50857;53.338;8.486;2022-08-07T16:01:43;6.18;;;2.60;;
64473;SDS011;50857;53.338;8.486;2022-08-07T16:04:10;6.28;;;2.83;;
64473;SDS011;50857;53.338;8.486;2022-08-07T16:06:42;6.15;;;2.80;;
64473;SDS011;50857;53.338;8.486;2022-08-07T16:09:11;6.30;;;3.10;;
64473;SDS011;50857;53.338;8.486;2022-08-07T16:11:43;6.35;;;3.10;;
64473;SDS011;50857;53.338;8.486;2022-08-07T16:14:13;6.75;;;3.35;;
64473;SDS011;50857;53.338;8.486;2022-08-07T16:19:27;5.82;;;3.03;;
64473;SDS011;50857;53.338;8.486;2022-08-07T16:22:00;5.68;;;2.70;;
64473;SDS011;50857;53.338;8.486;2022-08-07T16:24:30;7.47;;;2.80;;
64473;SDS011;50857;53.338;8.486;2022-08-07T16:27:00;5.47;;;3.30;;
64473;SDS011;50857;53.338;8.486;2022-08-07T16:29:34;6.00;;;2.85;;
64473;SDS011;50857;53.338;8.486;2022-08-07T16:32:16;5.65;;;2.85;;
64473;SDS011;50857;53.338;8.486;2022-08-07T16:34:45;6.05;;;2.90;;
64473;SDS011;50857;53.338;8.486;2022-08-07T16:37:26;7.22;;;2.80;;
64473;SDS011;50857;53.338;8.486;2022-08-07T16:42:50;5.80;;;3.07;;